Latest Coastal Weather Observations for Broome Port

IDW60701

Issued at 12:32 am WST Wednesday 4 March 2015 (issued every 10 minutes, with the page automatically refreshed every 10 minutes)

About coastal observations | Map of coastal stations | Coastal observations for WA | Marine services | Other Formats
Station Details ID: 003102 Name: BROOME NTC AWS Lat: -18.00 Lon: 122.22 Height: 0.0 m
Data from the previous 72 hours. | See also: Recent months for locations in Western Australia
Date/Time
WST
Temp

°C
Wind Pressure Rain
since 9am
mm
Weather Cloud Vis
km
Sea
Height
m
Swell
Dir
 
Speed
knots
Gust
knots
hPa Trend Height
m
Period
s
Dir
04/12:30am 28.2 SSE 13 14 1004.1 - - - - - - - - -
04/12:00am 29.1 SSE 15 17 1004.7 - - - - - - - - -
 
Date/Time
WST
Temp

°C
Wind Pressure Rain
since 9am
mm
Weather Cloud Vis
km
Sea
Height
m
Swell
Dir
 
Speed
knots
Gust
knots
hPa Trend Height
m
Period
s
Dir
03/11:30pm 29.2 S 8 12 1005.5 - - - - - - - - -
03/11:00pm 29.1 SW 9 11 1005.9 - - - - - - - - -
03/10:30pm 29.0 SW 5 8 1006.3 - - - - - - - - -
03/10:00pm 27.0 NNW 4 5 1005.9 - - - - - - - - -
03/09:30pm 26.8 NNE 3 4 1006.2 - - - - - - - - -
03/09:00pm 26.9 N 4 6 1006.2 - - - - - - - - -
03/08:30pm 26.4 NNE 6 8 1006.2 - - - - - - - - -
03/08:00pm 27.0 NE 4 6 1006.1 - - - - - - - - -
03/07:30pm 27.2 NNE 6 8 1006.2 - - - - - - - - -
03/07:00pm 28.2 NNW 9 12 1005.7 - - - - - - - - -
03/06:30pm 27.9 N 11 14 1005.5 - - - - - - - - -
03/06:00pm 27.9 N 16 20 1005.0 - - - - - - - - -
03/05:51pm 28.0 N 15 19 1005.0 - - - - - - - - -
03/05:30pm 28.1 N 6 8 1004.9 - - - - - - - - -
03/05:00pm 27.8 NNE 6 9 1005.0 - - - - - - - - -
03/04:30pm 28.0 NNW 3 5 1004.7 - - - - - - - - -
03/04:00pm 27.6 N 8 10 1004.6 - - - - - - - - -
03/03:30pm 26.6 N 9 11 1004.2 - - - - - - - - -
03/03:00pm 27.6 N 13 17 1004.6 - - - - - - - - -
03/02:53pm 26.3 NNE 20 31 1004.6 - - - - - - - - -
03/02:48pm 25.5 NNE 26 37 1004.7 - - - - - - - - -
03/02:43pm 25.3 NE 21 37 1004.9 - - - - - - - - -
03/02:40pm 25.7 NE 13 29 1005.2 - - - - - - - - -
03/02:38pm 27.0 NNE 8 23 1005.4 - - - - - - - - -
03/02:30pm 30.6 W 3 4 1004.9 - - - - - - - - -
03/02:00pm 30.4 W 5 7 1004.8 - - - - - - - - -
03/01:30pm 30.4 WSW 5 7 1005.0 - - - - - - - - -
03/01:00pm 30.5 WSW 5 6 1005.2 - - - - - - - - -
03/12:30pm 30.6 SW 5 6 1005.7 - - - - - - - - -
03/12:00pm 30.9 SSW 3 5 1006.3 - - - - - - - - -
03/11:30am 30.3 S 5 7 1006.7 - - - - - - - - -
03/11:00am 30.3 SSW 7 8 1007.0 - - - - - - - - -
03/10:30am 30.1 SW 8 12 1007.3 - - - - - - - - -
03/10:00am 30.2 SSW 10 12 1007.7 - - - - - - - - -
03/09:30am 30.0 SSW 11 15 1007.7 - - - - - - - - -
03/09:00am 29.6 SSW 11 14 1007.7 - - - - - - - - -
03/08:30am 29.2 SSW 12 15 1007.8 - - - - - - - - -
03/08:00am 29.0 SSW 14 16 1007.4 - - - - - - - - -
03/07:30am 29.1 SSW 14 17 1007.0 - - - - - - - - -
03/07:00am 29.1 SSW 13 16 1007.0 - - - - - - - - -
03/06:30am 29.1 S 11 13 1006.8 - - - - - - - - -
03/06:00am 29.0 S 10 12 1006.6 - - - - - - - - -
03/05:30am 28.9 S 10 11 1006.0 - - - - - - - - -
03/05:00am 28.9 S 9 11 1005.8 - - - - - - - - -
03/04:30am 29.0 S 8 10 1005.5 - - - - - - - - -
03/04:00am 28.9 S 10 11 1005.6 - - - - - - - - -
03/03:30am 29.1 S 10 13 1005.3 - - - - - - - - -
03/03:00am 29.5 SSW 9 11 1005.1 - - - - - - - - -
03/02:30am 29.9 SW 9 11 1005.1 - - - - - - - - -
03/02:00am 30.0 SW 8 11 1005.1 - - - - - - - - -
03/01:30am 29.8 SW 9 11 1005.4 - - - - - - - - -
03/01:00am 29.6 SSW 8 10 1005.7 - - - - - - - - -
03/12:30am 29.6 SSW 8 9 1005.9 - - - - - - - - -
03/12:00am 29.6 SSW 8 9 1006.3 - - - - - - - - -
 
Date/Time
WST
Temp

°C
Wind Pressure Rain
since 9am
mm
Weather Cloud Vis
km
Sea
Height
m
Swell
Dir
 
Speed
knots
Gust
knots
hPa Trend Height
m
Period
s
Dir
02/11:30pm 30.4 SW 8 11 1006.6 - - - - - - - - -
02/11:00pm 30.5 SW 9 11 1006.8 - - - - - - - - -
02/10:30pm 30.6 WSW 9 11 1006.8 - - - - - - - - -
02/10:00pm 30.5 WSW 10 12 1006.5 - - - - - - - - -
02/09:30pm 30.4 WSW 9 12 1006.1 - - - - - - - - -
02/09:00pm 30.4 W 10 13 1005.6 - - - - - - - - -
02/08:30pm 30.5 W 9 12 1005.3 - - - - - - - - -
02/08:00pm 30.4 W 9 12 1004.8 - - - - - - - - -
02/07:30pm 30.3 W 9 12 1004.6 - - - - - - - - -
02/07:00pm 30.2 W 9 11 1004.3 - - - - - - - - -
02/06:30pm 29.7 WSW 7 9 1003.9 - - - - - - - - -
02/06:00pm 29.5 SW 7 9 1003.6 - - - - - - - - -
02/05:30pm 29.3 SW 6 7 1003.4 - - - - - - - - -
02/05:00pm 28.9 S 7 9 1003.5 - - - - - - - - -
02/04:30pm 29.4 SSW 4 6 1003.4 - - - - - - - - -
02/04:00pm 30.1 WSW 10 14 1003.9 - - - - - - - - -
02/03:30pm 30.1 WSW 11 14 1004.1 - - - - - - - - -
02/03:00pm 30.1 W 14 17 1003.4 - - - - - - - - -
02/02:30pm 30.2 W 14 17 1003.8 - - - - - - - - -
02/02:00pm 30.6 W 13 17 1003.3 - - - - - - - - -
02/01:30pm 30.2 WSW 13 16 1003.9 - - - - - - - - -
02/01:00pm 30.1 W 13 16 1004.5 - - - - - - - - -
02/12:30pm 30.1 WSW 12 15 1005.3 - - - - - - - - -
02/12:00pm 30.1 WSW 10 13 1005.7 - - - - - - - - -
02/11:30am 30.3 WSW 8 10 1006.2 - - - - - - - - -
02/11:00am 30.5 SW 6 10 1006.3 - - - - - - - - -
02/10:30am 30.0 WSW 11 13 1006.3 - - - - - - - - -
02/10:00am 29.8 SSW 5 7 1007.1 - - - - - - - - -
02/09:30am 29.0 S 6 7 1007.4 - - - - - - - - -
02/09:00am 28.8 SSW 5 7 1007.4 - - - - - - - - -
02/08:30am 28.2 S 4 5 1007.5 - - - - - - - - -
02/08:00am 28.0 SSE 5 7 1007.2 - - - - - - - - -
02/07:30am 27.4 WSW 5 7 1006.9 - - - - - - - - -
02/07:00am 26.5 S 8 17 1007.0 - - - - - - - - -
02/06:30am 28.7 WSW 10 15 1006.3 - - - - - - - - -
02/06:00am 27.7 WNW 14 17 1005.7 - - - - - - - - -
02/05:30am 29.8 W 8 11 1005.3 - - - - - - - - -
02/05:00am 29.5 WNW 9 11 1005.0 - - - - - - - - -
02/04:30am 29.4 WNW 10 13 1004.8 - - - - - - - - -
02/04:00am 29.5 WNW 10 12 1004.6 - - - - - - - - -
02/03:30am 29.4 WNW 11 14 1004.6 - - - - - - - - -
02/03:00am 29.5 W 10 13 1004.8 - - - - - - - - -
02/02:30am 29.5 WNW 9 11 1005.1 - - - - - - - - -
02/02:00am 27.9 NNW 3 4 1005.5 - - - - - - - - -
02/01:30am 28.0 NNE 4 5 1005.9 - - - - - - - - -
02/01:00am 28.5 NE 4 5 1006.2 - - - - - - - - -
02/12:30am 28.2 NNE 3 4 1006.1 - - - - - - - - -
02/12:00am 28.3 N 4 5 1006.4 - - - - - - - - -
 
Date/Time
WST
Temp

°C
Wind Pressure Rain
since 9am
mm
Weather Cloud Vis
km
Sea
Height
m
Swell
Dir
 
Speed
knots
Gust
knots
hPa Trend Height
m
Period
s
Dir
01/11:30pm 28.2 NNE 4 5 1006.6 - - - - - - - - -
01/11:00pm 28.4 NE 3 5 1006.8 - - - - - - - - -
01/10:30pm 28.8 NNE 2 4 1007.2 - - - - - - - - -
01/10:00pm 29.1 NW 1 2 1006.9 - - - - - - - - -
01/09:30pm 28.9 NW 1 2 1006.8 - - - - - - - - -
01/09:00pm 28.9 NE 1 2 1006.5 - - - - - - - - -
01/08:30pm 28.7 N 1 2 1006.3 - - - - - - - - -
01/08:00pm 28.5 NE 2 3 1005.8 - - - - - - - - -
01/07:30pm 28.6 NNW 2 3 1005.5 - - - - - - - - -
01/07:00pm 28.3 NNW 5 6 1005.2 - - - - - - - - -
01/06:30pm 28.5 WNW 4 5 1005.0 - - - - - - - - -
01/06:00pm 28.6 NW 4 6 1005.2 - - - - - - - - -
01/05:30pm 28.9 NW 7 8 1004.7 - - - - - - - - -
01/05:00pm 28.7 WNW 8 9 1004.4 - - - - - - - - -
01/04:30pm 28.8 WNW 7 9 1004.7 - - - - - - - - -
01/04:00pm 28.1 W 9 11 1004.8 - - - - - - - - -
01/03:30pm 28.0 W 8 11 1004.9 - - - - - - - - -
01/03:00pm 28.1 WSW 6 9 1004.9 - - - - - - - - -
01/02:30pm 28.1 S 6 8 1005.1 - - - - - - - - -
01/02:00pm 28.4 S 2 3 1005.6 - - - - - - - - -
01/01:30pm 28.4 SW 7 10 1005.9 - - - - - - - - -
01/01:00pm 28.3 WSW 11 15 1005.9 - - - - - - - - -
01/12:30pm 27.5 W 15 20 1006.3 - - - - - - - - -
01/12:28pm 27.5 W 15 20 1006.3 - - - - - - - - -
01/12:00pm 28.6 NW 3 5 1007.8 - - - - - - - - -
01/11:30am 28.4 WSW 7 9 1007.4 - - - - - - - - -
01/11:00am 28.4 SW 4 7 1007.6 - - - - - - - - -
01/10:30am 27.8 S 6 8 1008.0 - - - - - - - - -
01/10:00am 27.9 S 4 7 1008.4 - - - - - - - - -
01/09:30am 27.3 SSW 5 9 1008.8 - - - - - - - - -
01/09:00am 27.6 ENE 4 5 1008.1 - - - - - - - - -
01/08:30am 26.9 E 6 8 1008.0 - - - - - - - - -
01/08:00am 26.3 SSE 10 14 1008.4 - - - - - - - - -
01/07:30am 25.3 SSW 12 15 1008.0 - - - - - - - - -
01/07:00am 24.7 SSW 12 15 1007.4 - - - - - - - - -
01/06:54am 22.8 SW 11 15 1007.2 - - - - - - - - -
01/06:39am 23.5 WSW 18 42 1007.5 - - - - - - - - -
01/06:36am 23.7 W 14 25 1007.7 - - - - - - - - -
01/06:30am 25.4 NW 14 27 1007.4 - - - - - - - - -
01/06:24am 25.2 N 9 27 1007.3 - - - - - - - - -
01/06:00am 26.4 NE 7 10 1006.7 - - - - - - - - -
01/05:30am 27.1 E 8 11 1006.3 - - - - - - - - -
01/05:00am 27.8 ESE 5 6 1005.8 - - - - - - - - -
01/04:30am 27.4 ESE 5 7 1005.4 - - - - - - - - -
01/04:00am 27.3 ESE 8 10 1005.2 - - - - - - - - -
01/03:30am 28.0 E 6 9 1005.3 - - - - - - - - -
01/03:00am 28.1 ESE 4 6 1005.1 - - - - - - - - -
01/02:30am 27.8 E 5 6 1005.2 - - - - - - - - -
01/02:00am 28.0 E 2 4 1005.0 - - - - - - - - -
01/01:30am 27.5 NE 1 2 1005.0 - - - - - - - - -
01/01:00am 27.5 NNW 5 6 1005.2 - - - - - - - - -

Other Formats:

Comma delimited format used in spreadsheet applications
http://www.bom.gov.au/fwo/IDW60701/IDW60701.95202.axf

JavaScript Object Notation format (JSON) in row-major order
http://www.bom.gov.au/fwo/IDW60701/IDW60701.95202.json